Time;durP1;ratioP1;P1;durP2;ratioP2;P2;SDS_P1;SDS_P2;PMS_P1;PMS_P2;Temp;Humidity;BMP_temperature;BMP_pressure;BME280_temperature;BME280_humidity;BME280_pressure;Samples;Min_cycle;Max_cycle;Signal;HPM_P1;HPM_P2
2023/07/06 00:00:00;;;;;;;4.00;2.55;;;17.30;68.50;;;;;;5003093;28;20109;-60
2023/07/06 00:02:26;;;;;;;2.83;2.63;;;17.20;68.40;;;;;;5004926;28;20037;-62
2023/07/06 00:04:52;;;;;;;5.78;2.80;;;17.20;68.50;;;;;;5005875;28;20041;-61
2023/07/06 00:07:22;;;;;;;3.22;2.53;;;17.20;68.80;;;;;;5006002;28;20048;-62
2023/07/06 00:09:49;;;;;;;3.05;2.72;;;17.10;68.90;;;;;;5004147;28;20033;-61
2023/07/06 00:12:15;;;;;;;3.03;2.72;;;17.10;69.00;;;;;;5003849;28;20049;-61
2023/07/06 00:14:41;;;;;;;2.90;2.60;;;17.10;69.00;;;;;;5004803;28;20034;-62
2023/07/06 00:17:14;;;;;;;3.42;2.70;;;17.00;69.00;;;;;;5007205;28;20028;-62
2023/07/06 00:19:41;;;;;;;2.97;2.67;;;17.10;69.70;;;;;;5004694;28;20541;-62
2023/07/06 00:22:09;;;;;;;3.03;2.70;;;17.00;69.10;;;;;;5006382;28;20038;-62
2023/07/06 00:24:36;;;;;;;3.85;3.03;;;17.00;69.30;;;;;;5006179;28;20037;-62
2023/07/06 00:27:01;;;;;;;4.15;2.90;;;16.90;69.30;;;;;;5006983;28;20030;-61
2023/07/06 00:29:33;;;;;;;5.38;2.80;;;16.80;69.50;;;;;;5004417;28;20140;-61
2023/07/06 00:32:15;;;;;;;3.95;2.88;;;16.70;69.60;;;;;;5004809;28;20490;-61
2023/07/06 00:34:48;;;;;;;3.03;2.72;;;16.70;69.90;;;;;;5006253;28;20527;-61
2023/07/06 00:37:13;;;;;;;6.20;2.70;;;16.60;70.20;;;;;;5006194;28;20046;-60
2023/07/06 00:39:39;;;;;;;3.17;2.88;;;16.50;70.40;;;;;;5004867;28;20049;-60
2023/07/06 00:42:13;;;;;;;3.08;2.65;;;16.40;70.60;;;;;;5006198;28;20057;-60
2023/07/06 00:44:59;;;;;;;3.00;2.70;;;16.30;70.70;;;;;;4999176;28;20115;-61
2023/07/06 00:47:34;;;;;;;3.15;2.78;;;16.30;72.00;;;;;;5003822;28;20042;-61
2023/07/06 00:50:08;;;;;;;3.08;2.75;;;16.20;71.30;;;;;;5003467;28;20038;-61
2023/07/06 00:52:40;;;;;;;2.80;2.53;;;16.10;71.30;;;;;;5002784;28;20034;-62
2023/07/06 00:55:07;;;;;;;2.50;2.30;;;16.10;71.20;;;;;;5004083;28;20108;-61
2023/07/06 00:57:35;;;;;;;3.70;2.90;;;16.00;71.30;;;;;;5006229;28;20041;-61
2023/07/06 01:00:04;;;;;;;14.23;2.80;;;16.00;71.60;;;;;;5002302;28;20062;-61
2023/07/06 01:02:30;;;;;;;3.47;2.60;;;15.90;71.60;;;;;;5010653;28;20040;-62
2023/07/06 01:04:56;;;;;;;4.97;2.70;;;15.90;71.60;;;;;;5006536;28;20417;-65
2023/07/06 01:07:26;;;;;;;2.90;2.55;;;15.80;71.60;;;;;;5003122;28;20049;-64
2023/07/06 01:09:52;;;;;;;3.85;2.72;;;15.80;71.90;;;;;;5006023;28;20501;-64
2023/07/06 01:12:19;;;;;;;2.97;2.47;;;15.80;71.80;;;;;;5003490;28;20076;-63
2023/07/06 01:14:45;;;;;;;2.65;2.45;;;15.70;71.90;;;;;;5004465;28;20068;-64
2023/07/06 01:17:26;;;;;;;3.03;2.72;;;15.70;72.10;;;;;;5005285;28;20045;-64
2023/07/06 01:20:20;;;;;;;3.97;2.88;;;15.80;73.00;;;;;;5003140;28;20030;-63
2023/07/06 01:23:13;;;;;;;3.83;2.58;;;15.80;73.00;;;;;;5004276;28;20038;-64
2023/07/06 01:26:34;;;;;;;3.78;2.53;;;15.80;72.50;;;;;;5004778;28;20034;-64
2023/07/06 01:29:20;;;;;;;3.13;2.53;;;15.70;72.40;;;;;;4960961;28;20150;-64
2023/07/06 01:32:06;;;;;;;3.22;2.83;;;15.70;72.30;;;;;;5000205;28;20064;-64
2023/07/06 01:34:47;;;;;;;3.55;2.75;;;15.60;72.30;;;;;;5003163;28;20091;-64
2023/07/06 01:37:18;;;;;;;3.45;3.10;;;15.50;72.10;;;;;;5003099;28;20047;-61
2023/07/06 01:39:44;;;;;;;2.75;2.55;;;15.40;71.60;;;;;;5004665;28;20462;-63
2023/07/06 01:42:13;;;;;;;3.13;2.67;;;15.30;71.90;;;;;;5002591;28;20156;-63
2023/07/06 01:44:46;;;;;;;3.83;2.67;;;15.30;73.30;;;;;;5003925;28;20489;-63
2023/07/06 01:47:13;;;;;;;3.20;2.75;;;15.20;72.80;;;;;;5003285;28;20057;-63
2023/07/06 01:49:39;;;;;;;7.43;2.75;;;15.20;72.80;;;;;;5003764;28;20072;-63
2023/07/06 01:52:19;;;;;;;3.00;2.70;;;15.10;72.80;;;;;;5003508;28;20055;-63
2023/07/06 01:54:54;;;;;;;3.22;2.60;;;15.10;73.30;;;;;;5003728;28;20034;-63
2023/07/06 01:57:29;;;;;;;4.93;2.65;;;15.10;73.30;;;;;;5004586;28;20531;-63
2023/07/06 02:00:00;;;;;;;3.38;2.75;;;15.10;73.30;;;;;;5002292;28;20409;-63
2023/07/06 02:02:27;;;;;;;4.32;2.97;;;15.10;73.10;;;;;;5004104;28;20156;-63
2023/07/06 02:04:56;;;;;;;3.75;3.00;;;15.10;73.20;;;;;;5004763;28;20059;-63
2023/07/06 02:07:22;;;;;;;3.17;2.75;;;15.10;73.30;;;;;;5002007;28;20038;-63
2023/07/06 02:09:51;;;;;;;3.47;3.17;;;15.10;73.30;;;;;;5004441;28;20045;-63
2023/07/06 02:12:18;;;;;;;3.13;2.78;;;15.10;73.50;;;;;;5002098;28;20041;-63
2023/07/06 02:14:44;;;;;;;4.43;2.78;;;15.00;73.70;;;;;;5001335;28;20053;-61
2023/07/06 02:17:10;;;;;;;3.00;2.70;;;15.00;73.90;;;;;;5005025;28;20033;-60
2023/07/06 02:19:38;;;;;;;4.20;3.00;;;15.00;74.00;;;;;;5003337;28;20609;-63
2023/07/06 02:22:04;;;;;;;3.20;2.75;;;15.00;74.10;;;;;;5003764;28;20049;-61
2023/07/06 02:24:30;;;;;;;7.70;3.30;;;15.00;74.20;;;;;;5005087;28;20524;-62
2023/07/06 02:26:56;;;;;;;3.70;3.17;;;14.90;74.30;;;;;;5006530;28;20041;-63
2023/07/06 02:29:24;;;;;;;3.72;3.33;;;14.90;74.30;;;;;;5004395;28;20042;-62
2023/07/06 02:31:50;;;;;;;3.92;3.03;;;14.90;74.40;;;;;;5003955;28;20033;-62
2023/07/06 02:34:24;;;;;;;5.43;3.22;;;14.90;74.50;;;;;;5004165;28;20404;-63
2023/07/06 02:36:51;;;;;;;3.92;3.00;;;14.90;74.60;;;;;;5003528;28;20145;-62
2023/07/06 02:39:19;;;;;;;4.00;2.88;;;14.90;74.40;;;;;;5003447;28;20060;-62
2023/07/06 02:41:45;;;;;;;3.15;2.80;;;14.80;74.40;;;;;;5002987;28;20113;-63
2023/07/06 02:44:10;;;;;;;3.58;2.90;;;14.80;74.60;;;;;;5004373;28;20259;-63
2023/07/06 02:46:36;;;;;;;2.90;2.60;;;14.80;75.00;;;;;;5002563;28;20113;-62
2023/07/06 02:49:03;;;;;;;4.05;2.90;;;14.70;74.90;;;;;;5004220;28;20038;-63
2023/07/06 02:51:34;;;;;;;2.95;2.67;;;14.70;74.90;;;;;;5004010;28;20042;-63
2023/07/06 02:53:59;;;;;;;3.35;2.92;;;14.70;75.10;;;;;;5004226;28;20427;-62
2023/07/06 02:56:26;;;;;;;3.50;3.03;;;14.70;76.10;;;;;;5003352;28;20072;-61
2023/07/06 02:58:52;;;;;;;4.40;3.15;;;14.70;75.20;;;;;;5002476;28;20038;-62
2023/07/06 03:01:18;;;;;;;4.47;3.15;;;14.70;74.90;;;;;;5001600;28;20520;-63
2023/07/06 03:03:44;;;;;;;4.18;3.05;;;14.60;74.80;;;;;;4999461;28;20163;-63
2023/07/06 03:06:09;;;;;;;6.00;3.05;;;14.60;75.00;;;;;;5002692;28;20037;-62
2023/07/06 03:08:35;;;;;;;4.03;3.20;;;14.50;75.10;;;;;;5001800;28;20492;-63
2023/07/06 03:11:00;;;;;;;4.75;3.00;;;14.50;75.40;;;;;;5002157;28;20432;-62
2023/07/06 03:13:28;;;;;;;3.30;2.97;;;14.40;75.60;;;;;;5001022;28;20128;-62
2023/07/06 03:15:56;;;;;;;3.22;2.95;;;14.40;75.80;;;;;;5000754;28;20038;-62
2023/07/06 03:18:23;;;;;;;3.63;3.30;;;14.40;76.00;;;;;;5000829;28;20034;-63
2023/07/06 03:20:48;;;;;;;3.25;2.65;;;14.40;76.10;;;;;;4998650;28;20095;-63
2023/07/06 03:23:14;;;;;;;3.63;2.80;;;14.40;76.10;;;;;;5003743;28;20049;-62
2023/07/06 03:25:40;;;;;;;3.45;2.70;;;14.50;75.70;;;;;;5000844;28;20763;-62
2023/07/06 03:28:06;;;;;;;5.28;3.10;;;14.50;75.60;;;;;;5000912;28;20165;-63
2023/07/06 03:30:31;;;;;;;3.10;2.65;;;14.50;75.50;;;;;;5000779;28;20041;-63
2023/07/06 03:33:00;;;;;;;3.28;2.65;;;14.60;75.30;;;;;;5000450;28;20049;-63
2023/07/06 03:35:26;;;;;;;3.35;2.70;;;14.60;75.10;;;;;;5002915;28;20029;-63
2023/07/06 03:37:55;;;;;;;3.53;2.88;;;14.60;74.90;;;;;;4999725;28;20124;-62
2023/07/06 03:40:21;;;;;;;2.88;2.53;;;14.60;75.00;;;;;;5000751;28;20057;-63
2023/07/06 03:42:48;;;;;;;4.55;2.80;;;14.60;74.90;;;;;;5002020;28;20381;-62
2023/07/06 03:45:16;;;;;;;5.03;3.00;;;14.60;74.90;;;;;;5002095;28;20065;-63
2023/07/06 03:47:43;;;;;;;6.25;3.13;;;14.50;74.90;;;;;;5000264;28;20421;-64
2023/07/06 03:50:14;;;;;;;4.00;2.63;;;14.50;75.80;;;;;;4999406;28;20033;-61
2023/07/06 03:52:41;;;;;;;3.53;2.95;;;14.50;75.60;;;;;;5003018;28;20054;-63
2023/07/06 03:55:15;;;;;;;5.03;2.85;;;14.40;75.40;;;;;;5004169;28;20438;-63
2023/07/06 03:57:43;;;;;;;3.13;2.80;;;14.40;76.00;;;;;;5003288;28;20041;-61
2023/07/06 04:00:19;;;;;;;3.20;2.58;;;14.40;75.80;;;;;;5004459;28;20113;-63
2023/07/06 04:02:49;;;;;;;3.95;2.97;;;14.30;75.90;;;;;;5001524;28;20058;-63
2023/07/06 04:05:17;;;;;;;3.50;2.58;;;14.40;75.90;;;;;;5001743;28;20046;-63
2023/07/06 04:07:52;;;;;;;7.18;2.90;;;14.40;76.00;;;;;;5003655;28;20030;-62
2023/07/06 04:10:18;;;;;;;;;;;14.40;76.00;;;;;;5001499;28;20042;-63
2023/07/06 04:12:44;;;;;;;3.30;2.88;;;14.50;76.30;;;;;;4998694;28;19917;-61
2023/07/06 04:15:10;;;;;;;4.05;2.80;;;14.50;75.30;;;;;;5002157;28;20081;-62
2023/07/06 04:17:36;;;;;;;2.88;2.58;;;14.50;75.80;;;;;;5000595;28;20261;-63
2023/07/06 04:20:19;;;;;;;4.45;2.85;;;14.40;76.10;;;;;;4997895;28;20034;-62
2023/07/06 04:22:49;;;;;;;4.00;2.83;;;14.40;76.60;;;;;;5001012;28;20046;-63
2023/07/06 04:25:19;;;;;;;3.13;2.78;;;14.40;76.80;;;;;;5004710;28;20532;-63
2023/07/06 04:27:48;;;;;;;3.78;2.88;;;14.40;76.50;;;;;;5005116;28;20109;-63
2023/07/06 04:30:15;;;;;;;3.33;2.80;;;14.40;76.50;;;;;;5004203;28;20049;-63
2023/07/06 04:32:48;;;;;;;4.00;2.58;;;14.40;76.60;;;;;;5002904;28;20054;-62
2023/07/06 04:35:16;;;;;;;3.08;2.67;;;14.40;76.80;;;;;;5002719;28;20061;-61
2023/07/06 04:37:43;;;;;;;4.75;3.03;;;14.40;77.00;;;;;;5004017;28;20421;-61
2023/07/06 04:40:13;;;;;;;6.20;2.90;;;14.40;77.10;;;;;;5003855;28;20026;-62
2023/07/06 04:42:40;;;;;;;5.82;2.88;;;14.40;77.30;;;;;;5006422;28;20413;-62
2023/07/06 04:45:09;;;;;;;3.10;2.80;;;14.50;77.30;;;;;;5007093;28;20045;-63
2023/07/06 04:47:38;;;;;;;4.05;2.97;;;14.50;77.20;;;;;;5007322;28;20509;-63
2023/07/06 04:50:06;;;;;;;5.85;3.00;;;14.60;77.20;;;;;;5007972;28;20046;-62
2023/07/06 04:52:39;;;;;;;3.67;2.70;;;14.70;77.30;;;;;;5007547;28;20065;-62
2023/07/06 04:55:11;;;;;;;4.07;2.97;;;14.70;77.50;;;;;;5006549;28;20074;-61
2023/07/06 04:57:37;;;;;;;10.80;3.90;;;14.80;77.90;;;;;;5005768;28;20030;-62
2023/07/06 05:00:14;;;;;;;7.82;3.88;;;14.90;77.90;;;;;;5004869;28;20125;-62
2023/07/06 05:02:42;;;;;;;8.88;4.47;;;14.90;78.00;;;;;;5006690;28;20584;-62
2023/07/06 05:05:11;;;;;;;6.32;3.95;;;15.00;77.90;;;;;;5006308;28;20092;-61
2023/07/06 05:07:37;;;;;;;7.57;4.60;;;15.20;78.20;;;;;;5005550;28;20563;-61
2023/07/06 05:10:04;;;;;;;7.50;4.82;;;15.20;78.30;;;;;;5005879;28;20596;-63
2023/07/06 05:12:29;;;;;;;7.82;5.15;;;15.30;78.40;;;;;;5006200;28;20116;-63
2023/07/06 05:14:55;;;;;;;8.25;5.43;;;15.40;78.40;;;;;;5005667;28;20120;-61
2023/07/06 05:17:20;;;;;;;11.38;5.85;;;15.40;78.60;;;;;;5007113;28;20034;-63
2023/07/06 05:19:46;;;;;;;9.07;5.78;;;15.50;78.70;;;;;;5006848;28;20392;-61
2023/07/06 05:22:12;;;;;;;8.88;5.88;;;15.60;78.90;;;;;;5006877;28;20042;-62
2023/07/06 05:24:39;;;;;;;8.95;6.53;;;15.60;78.90;;;;;;5006043;28;20029;-62
2023/07/06 05:27:06;;;;;;;10.30;6.45;;;15.70;79.20;;;;;;5005568;28;20081;-62
2023/07/06 05:29:32;;;;;;;8.20;5.75;;;15.80;79.30;;;;;;5005428;28;20498;-62
2023/07/06 05:31:57;;;;;;;10.43;6.55;;;15.90;79.10;;;;;;5005074;28;20472;-62
2023/07/06 05:34:23;;;;;;;8.43;5.88;;;15.90;79.30;;;;;;5007345;28;20125;-61
2023/07/06 05:36:49;;;;;;;8.18;5.32;;;16.00;79.30;;;;;;5005401;28;20549;-63
2023/07/06 05:39:14;;;;;;;8.27;5.18;;;16.00;79.30;;;;;;5005511;28;20041;-62
2023/07/06 05:41:40;;;;;;;11.10;4.72;;;16.00;79.10;;;;;;5006681;28;20049;-63
2023/07/06 05:44:06;;;;;;;5.70;4.45;;;16.10;79.10;;;;;;5006470;28;20464;-62
2023/07/06 05:46:31;;;;;;;6.03;4.28;;;16.10;79.10;;;;;;5003665;28;20049;-62
2023/07/06 05:48:57;;;;;;;8.50;4.88;;;16.20;79.30;;;;;;5004073;28;20038;-62
2023/07/06 05:51:22;;;;;;;8.00;4.65;;;16.20;79.20;;;;;;5006172;28;20071;-63
2023/07/06 05:53:51;;;;;;;7.45;4.40;;;16.30;79.60;;;;;;5006240;28;20056;-62
2023/07/06 05:56:23;;;;;;;6.05;3.90;;;16.30;79.30;;;;;;5006159;28;20502;-62
2023/07/06 05:58:49;;;;;;;5.50;3.50;;;16.30;78.90;;;;;;5004129;28;20092;-60
2023/07/06 06:01:16;;;;;;;7.35;3.28;;;16.30;78.30;;;;;;5004939;28;20041;-62
2023/07/06 06:03:42;;;;;;;5.95;3.50;;;16.30;76.80;;;;;;5005988;28;20040;-60
2023/07/06 06:06:08;;;;;;;3.63;3.33;;;16.30;76.50;;;;;;5005164;28;20073;-62
2023/07/06 06:08:33;;;;;;;3.88;3.47;;;16.30;76.60;;;;;;5006537;28;20049;-60
2023/07/06 06:11:00;;;;;;;4.93;4.00;;;16.30;76.80;;;;;;5005508;28;20048;-61
2023/07/06 06:13:27;;;;;;;4.68;3.92;;;16.40;76.80;;;;;;5005315;28;20436;-63
2023/07/06 06:15:53;;;;;;;4.65;4.05;;;16.40;76.90;;;;;;5002219;28;20084;-62
2023/07/06 06:18:18;;;;;;;7.65;3.90;;;16.50;77.00;;;;;;5006658;28;20045;-62
2023/07/06 06:20:44;;;;;;;5.18;3.72;;;16.50;77.30;;;;;;5003930;28;20459;-62
2023/07/06 06:23:10;;;;;;;5.55;3.75;;;16.50;76.70;;;;;;5004875;28;20073;-62
2023/07/06 06:25:38;;;;;;;4.60;3.92;;;16.60;76.70;;;;;;5006279;28;20060;-63
2023/07/06 06:28:04;;;;;;;4.40;3.75;;;16.70;76.60;;;;;;5006697;28;20096;-62
2023/07/06 06:30:30;;;;;;;3.80;3.47;;;16.80;76.50;;;;;;5004063;28;20129;-62
2023/07/06 06:32:57;;;;;;;7.00;4.10;;;16.80;76.50;;;;;;5004523;28;20505;-63
2023/07/06 06:35:29;;;;;;;4.57;3.55;;;16.90;76.00;;;;;;5006176;28;20042;-63
2023/07/06 06:37:57;;;;;;;4.85;3.70;;;16.90;75.60;;;;;;5005836;28;20042;-62
2023/07/06 06:40:24;;;;;;;5.55;4.03;;;16.90;75.60;;;;;;5002340;28;20060;-62
2023/07/06 06:42:50;;;;;;;5.68;4.50;;;17.00;75.90;;;;;;5004344;28;20048;-63
2023/07/06 06:45:17;;;;;;;6.55;4.13;;;17.00;75.70;;;;;;5006020;28;20042;-61
2023/07/06 06:47:44;;;;;;;5.18;4.68;;;17.10;75.80;;;;;;5004226;28;20037;-62
2023/07/06 06:50:13;;;;;;;5.65;4.32;;;17.20;75.60;;;;;;5005606;28;20034;-62
2023/07/06 06:52:40;;;;;;;5.25;4.07;;;17.20;75.40;;;;;;5004803;28;20065;-62
2023/07/06 06:55:07;;;;;;;5.47;4.40;;;17.30;75.50;;;;;;5004535;28;20452;-62
2023/07/06 06:57:33;;;;;;;6.07;4.60;;;17.30;75.40;;;;;;5004448;28;20034;-62
2023/07/06 06:59:59;;;;;;;5.05;4.13;;;17.40;75.70;;;;;;5004704;28;20042;-61
2023/07/06 07:02:25;;;;;;;4.88;4.13;;;17.50;75.70;;;;;;5003126;28;20030;-61
2023/07/06 07:04:52;;;;;;;5.30;4.00;;;17.60;75.50;;;;;;5004686;28;20034;-62
2023/07/06 07:07:17;;;;;;;6.57;4.10;;;17.60;75.10;;;;;;5005552;28;20084;-61
2023/07/06 07:09:46;;;;;;;6.35;4.65;;;17.70;74.90;;;;;;5005121;28;20526;-62
2023/07/06 07:12:12;;;;;;;6.63;4.43;;;17.80;74.60;;;;;;5003628;28;20494;-63
2023/07/06 07:14:38;;;;;;;7.07;4.28;;;17.90;74.40;;;;;;5003141;28;20034;-62
2023/07/06 07:17:07;;;;;;;5.53;4.35;;;18.00;75.40;;;;;;5003768;28;20111;-62
2023/07/06 07:19:34;;;;;;;5.90;4.50;;;18.10;74.40;;;;;;5004369;28;20030;-60
2023/07/06 07:22:00;;;;;;;6.13;4.25;;;18.20;74.30;;;;;;5003902;28;20128;-62
2023/07/06 07:24:29;;;;;;;5.25;4.28;;;18.30;74.10;;;;;;5004786;28;20124;-61
2023/07/06 07:26:58;;;;;;;4.78;4.28;;;18.40;74.20;;;;;;5005039;28;20061;-63
2023/07/06 07:29:23;;;;;;;7.18;4.20;;;18.50;74.20;;;;;;5004816;28;20038;-62
2023/07/06 07:31:50;;;;;;;4.18;3.72;;;18.60;74.00;;;;;;5004072;28;20034;-63
2023/07/06 07:34:17;;;;;;;4.60;4.10;;;18.70;73.90;;;;;;5004014;28;20569;-62
2023/07/06 07:36:43;;;;;;;5.68;3.95;;;18.80;73.50;;;;;;5002864;28;20038;-62
2023/07/06 07:39:09;;;;;;;5.75;4.65;;;18.90;73.30;;;;;;5005332;28;20128;-63
2023/07/06 07:41:35;;;;;;;6.53;4.82;;;19.00;73.00;;;;;;5004749;28;20465;-62
2023/07/06 07:44:01;;;;;;;6.13;4.20;;;19.10;72.60;;;;;;5003840;28;20038;-61
2023/07/06 07:46:30;;;;;;;5.80;4.78;;;19.20;72.50;;;;;;5002578;28;20038;-62
2023/07/06 07:48:57;;;;;;;4.95;4.38;;;19.30;72.40;;;;;;5003781;28;20121;-62
2023/07/06 07:51:26;;;;;;;4.97;4.15;;;19.40;72.20;;;;;;5004271;28;20087;-62
2023/07/06 07:53:54;;;;;;;4.75;4.25;;;19.50;72.30;;;;;;5002968;28;20042;-63
2023/07/06 07:56:21;;;;;;;5.07;4.18;;;19.70;71.80;;;;;;5004849;28;20121;-63
2023/07/06 07:58:48;;;;;;;5.00;4.05;;;19.70;71.60;;;;;;5002835;28;20045;-62
2023/07/06 08:01:19;;;;;;;4.82;4.22;;;19.80;71.40;;;;;;5003308;28;20088;-62
2023/07/06 08:03:44;;;;;;;4.85;4.15;;;19.90;71.10;;;;;;5002479;28;20121;-63
2023/07/06 08:06:14;;;;;;;5.40;4.30;;;20.00;70.70;;;;;;5004016;28;20133;-62
2023/07/06 08:08:41;;;;;;;5.93;4.28;;;20.10;70.30;;;;;;5003222;28;20481;-62
2023/07/06 08:11:11;;;;;;;4.20;3.75;;;20.20;70.10;;;;;;5004798;28;20520;-62
2023/07/06 08:13:36;;;;;;;7.63;3.90;;;20.40;69.30;;;;;;5004162;28;20040;-63
2023/07/06 08:16:03;;;;;;;5.88;4.10;;;20.50;68.90;;;;;;5003915;28;20038;-61
2023/07/06 08:18:31;;;;;;;5.43;3.38;;;20.60;67.40;;;;;;5005534;28;20425;-63
2023/07/06 08:20:57;;;;;;;4.80;3.53;;;20.70;66.70;;;;;;5006949;28;20108;-62
2023/07/06 08:23:25;;;;;;;4.78;3.58;;;20.80;66.00;;;;;;5008092;28;20077;-62
2023/07/06 08:25:51;;;;;;;4.70;3.58;;;20.90;66.00;;;;;;5009436;28;20319;-61
2023/07/06 08:28:21;;;;;;;4.50;3.45;;;21.00;65.60;;;;;;5008598;28;20044;-62
2023/07/06 08:30:48;;;;;;;6.90;3.33;;;21.10;65.70;;;;;;5007555;28;20112;-62
2023/07/06 08:33:14;;;;;;;3.58;3.10;;;21.20;64.90;;;;;;5008138;28;20388;-61
2023/07/06 08:35:42;;;;;;;4.05;3.22;;;21.30;64.30;;;;;;5008950;28;20026;-62
2023/07/06 08:38:07;;;;;;;4.07;3.10;;;21.30;63.90;;;;;;5007239;28;20362;-62
2023/07/06 08:40:35;;;;;;;3.80;3.05;;;21.50;64.30;;;;;;5008118;28;20041;-62
2023/07/06 08:43:04;;;;;;;4.07;3.42;;;21.70;63.00;;;;;;5008502;28;20101;-62
2023/07/06 08:45:41;;;;;;;2.60;2.40;;;21.80;62.70;;;;;;5007398;28;20030;-62
2023/07/06 08:48:16;;;;;;;6.43;2.75;;;21.90;61.60;;;;;;5007285;28;20038;-62
2023/07/06 08:50:50;;;;;;;3.40;2.88;;;22.10;61.50;;;;;;5006557;28;20600;-63
2023/07/06 08:53:16;;;;;;;2.67;2.47;;;22.10;60.00;;;;;;5007064;28;20120;-62
2023/07/06 08:55:43;;;;;;;2.95;2.65;;;22.20;60.40;;;;;;5006731;28;20160;-62
2023/07/06 08:58:28;;;;;;;3.13;2.47;;;22.40;59.20;;;;;;5006734;28;20034;-62
2023/07/06 09:01:10;;;;;;;3.97;2.60;;;22.40;58.50;;;;;;5007129;28;20089;-62
2023/07/06 09:03:46;;;;;;;2.42;2.22;;;22.60;58.20;;;;;;5006643;28;20037;-62
2023/07/06 09:06:16;;;;;;;2.47;2.28;;;22.70;58.10;;;;;;5006507;28;20045;-62
2023/07/06 09:08:45;;;;;;;2.67;2.38;;;22.80;57.70;;;;;;5006066;28;20049;-62
2023/07/06 09:11:12;;;;;;;2.47;2.15;;;22.90;57.20;;;;;;5006438;28;20386;-62
2023/07/06 09:14:10;;;;;;;2.30;2.10;;;23.00;57.10;;;;;;5007359;28;20470;-62
2023/07/06 09:16:45;;;;;;;2.90;2.20;;;23.20;56.40;;;;;;4998912;28;20761;-62
2023/07/06 09:19:13;;;;;;;;;;;23.20;55.80;;;;;;5005824;28;20084;-63
2023/07/06 09:21:40;;;;;;;3.85;1.90;;;23.40;55.90;;;;;;5006338;28;19918;-63
2023/07/06 09:24:08;;;;;;;3.63;1.80;;;23.50;55.40;;;;;;5006886;28;20447;-63
2023/07/06 09:26:35;;;;;;;2.63;1.88;;;23.50;54.00;;;;;;5007027;28;20084;-63
2023/07/06 09:29:28;;;;;;;2.00;1.70;;;23.60;54.20;;;;;;5004193;28;20666;-63
2023/07/06 09:32:19;;;;;;;2.67;2.08;;;23.80;52.00;;;;;;5006888;28;20042;-63
2023/07/06 09:34:50;;;;;;;2.60;2.10;;;23.80;50.80;;;;;;5005436;28;20513;-62
2023/07/06 09:37:20;;;;;;;1.95;1.67;;;23.80;51.50;;;;;;5006316;28;20049;-63
2023/07/06 09:40:05;;;;;;;2.33;2.13;;;23.80;51.70;;;;;;5004918;28;20037;-63
2023/07/06 09:42:32;;;;;;;2.45;2.10;;;23.80;49.00;;;;;;5006163;28;20037;-63
2023/07/06 09:45:00;;;;;;;2.50;1.73;;;23.80;51.30;;;;;;5005156;28;20046;-63
2023/07/06 09:47:27;;;;;;;2.72;1.90;;;23.90;51.80;;;;;;5005893;28;20076;-63
2023/07/06 09:50:04;;;;;;;2.15;1.95;;;24.00;52.10;;;;;;5004868;28;20042;-63
2023/07/06 09:52:33;;;;;;;2.20;2.00;;;24.10;51.70;;;;;;5005818;28;20038;-63
2023/07/06 09:55:19;;;;;;;4.88;2.20;;;24.10;51.50;;;;;;5006356;28;20037;-63
2023/07/06 09:57:48;;;;;;;2.35;1.92;;;24.30;51.00;;;;;;5005368;28;20076;-63
2023/07/06 10:00:18;;;;;;;2.70;1.90;;;24.40;51.90;;;;;;5006064;28;20513;-63
2023/07/06 10:03:57;;;;;;;2.28;2.08;;;24.50;51.30;;;;;;5004233;28;20038;-63
2023/07/06 10:06:48;;;;;;;1.90;1.77;;;24.70;50.90;;;;;;4919297;29;20058;-63
2023/07/06 10:09:20;;;;;;;2.95;1.98;;;24.70;49.60;;;;;;4932970;28;20039;-63
2023/07/06 10:11:56;;;;;;;3.33;2.35;;;24.80;50.70;;;;;;4983091;28;20026;-63
2023/07/06 10:14:41;;;;;;;3.47;2.10;;;24.90;49.30;;;;;;5005121;28;20456;-63
2023/07/06 10:17:18;;;;;;;4.40;2.17;;;25.00;49.70;;;;;;5004006;28;20034;-64
2023/07/06 10:19:54;;;;;;;3.00;2.47;;;25.00;49.30;;;;;;5004142;28;20623;-62
2023/07/06 10:22:55;;;;;;;5.35;2.13;;;25.00;49.80;;;;;;5005802;28;20128;-63
2023/07/06 10:25:33;;;;;;;2.30;2.10;;;25.10;48.90;;;;;;4979847;28;20033;-63
2023/07/06 10:28:09;;;;;;;2.40;2.20;;;25.20;48.30;;;;;;5006449;28;20037;-64
2023/07/06 10:30:44;;;;;;;2.13;1.92;;;25.30;47.70;;;;;;5004111;28;20046;-63
2023/07/06 10:33:19;;;;;;;2.03;1.83;;;25.40;47.10;;;;;;5006321;28;20532;-62
2023/07/06 10:35:46;;;;;;;3.85;2.08;;;25.40;47.60;;;;;;5003633;28;20065;-63
2023/07/06 10:38:12;;;;;;;4.03;2.30;;;25.40;48.60;;;;;;5003587;28;20034;-64
2023/07/06 10:40:39;;;;;;;3.35;2.38;;;25.40;48.20;;;;;;5005264;28;20066;-64
2023/07/06 10:43:14;;;;;;;2.30;2.00;;;25.40;48.00;;;;;;5005522;28;20461;-62
2023/07/06 10:45:43;;;;;;;2.20;2.00;;;25.40;48.00;;;;;;5005973;28;20054;-63
2023/07/06 10:48:14;;;;;;;3.55;2.28;;;25.40;48.00;;;;;;5005491;28;20038;-64
2023/07/06 10:51:12;;;;;;;2.50;2.17;;;25.40;47.10;;;;;;5004555;28;20088;-63
2023/07/06 10:53:43;;;;;;;3.65;2.03;;;25.40;46.60;;;;;;4997592;28;20049;-63
2023/07/06 10:56:11;;;;;;;2.63;2.25;;;25.30;47.70;;;;;;5005431;28;20030;-64
2023/07/06 10:58:57;;;;;;;2.45;2.25;;;25.30;47.70;;;;;;5006039;28;20584;-64
2023/07/06 11:01:46;;;;;;;3.35;2.10;;;25.40;48.10;;;;;;5004216;28;20046;-64
2023/07/06 11:04:36;;;;;;;4.30;2.10;;;25.50;47.50;;;;;;5005587;28;20048;-64
2023/07/06 11:07:02;;;;;;;2.45;2.15;;;25.60;47.30;;;;;;5003672;28;20034;-63
2023/07/06 11:09:28;;;;;;;3.67;2.20;;;25.60;47.80;;;;;;5003442;28;20034;-64
2023/07/06 11:11:54;;;;;;;4.25;2.05;;;25.70;48.00;;;;;;5003013;28;20037;-64
2023/07/06 11:14:36;;;;;;;3.25;2.40;;;25.80;47.70;;;;;;5003968;28;20038;-64
2023/07/06 11:17:13;;;;;;;2.50;2.28;;;25.90;45.90;;;;;;5004474;28;20023;-64
2023/07/06 11:19:44;;;;;;;2.88;2.58;;;26.00;45.70;;;;;;5004045;28;20030;-64
2023/07/06 11:22:17;;;;;;;2.40;2.20;;;26.00;45.70;;;;;;5004462;28;20038;-64
2023/07/06 11:24:48;;;;;;;2.65;2.38;;;26.10;45.00;;;;;;5004741;28;20034;-62
2023/07/06 11:27:29;;;;;;;2.30;2.10;;;26.10;45.70;;;;;;5004952;28;20038;-63
2023/07/06 11:30:02;;;;;;;2.75;2.50;;;26.20;44.90;;;;;;5004433;28;20410;-61
2023/07/06 11:32:38;;;;;;;2.70;2.00;;;26.30;44.80;;;;;;5003489;28;20061;-62
2023/07/06 11:35:11;;;;;;;3.53;2.42;;;26.40;45.00;;;;;;5004460;28;20034;-63
2023/07/06 11:38:19;;;;;;;2.40;2.17;;;26.40;44.10;;;;;;5006201;28;20065;-63
2023/07/06 11:41:09;;;;;;;2.50;2.30;;;26.50;43.80;;;;;;4946454;28;20486;-63
2023/07/06 11:43:40;;;;;;;3.03;2.35;;;26.50;43.40;;;;;;5003821;28;20044;-63
2023/07/06 11:46:44;;;;;;;2.28;2.08;;;26.60;44.20;;;;;;5002197;28;20045;-62
2023/07/06 11:49:47;;;;;;;4.65;2.75;;;26.60;43.30;;;;;;5003997;28;20044;-63
2023/07/06 11:52:16;;;;;;;3.08;2.35;;;26.60;43.40;;;;;;5009031;28;20034;-63
2023/07/06 11:54:51;;;;;;;2.95;2.50;;;26.70;43.60;;;;;;5006674;28;20057;-62
2023/07/06 11:57:28;;;;;;;3.03;2.47;;;26.70;42.70;;;;;;5008417;28;20039;-63
2023/07/06 12:01:10;;;;;;;3.05;2.35;;;26.70;42.60;;;;;;5008297;28;20026;-63
2023/07/06 12:03:08;;;;;;;2.58;2.30;;;26.80;43.10;;;;;;5001293;28;20442;-63
2023/07/06 12:05:45;;;;;;;3.10;2.60;;;26.80;42.80;;;;;;5008292;28;20037;-62
2023/07/06 12:08:35;;;;;;;2.60;2.33;;;26.80;43.00;;;;;;5007834;28;20075;-63
2023/07/06 12:11:02;;;;;;;3.17;2.60;;;26.80;42.00;;;;;;5007249;28;20033;-63
2023/07/06 12:13:32;;;;;;;2.85;2.40;;;26.90;43.00;;;;;;5007906;28;20041;-63
2023/07/06 12:16:11;;;;;;;2.35;2.15;;;26.90;42.30;;;;;;5007503;28;20033;-64
2023/07/06 12:18:38;;;;;;;2.63;2.40;;;26.90;42.30;;;;;;5008108;28;20057;-63
2023/07/06 12:21:05;;;;;;;3.20;2.75;;;26.90;42.60;;;;;;5007693;28;20037;-63
2023/07/06 12:23:31;;;;;;;3.13;2.67;;;27.00;41.80;;;;;;5008199;28;20220;-63
2023/07/06 12:25:58;;;;;;;3.08;2.80;;;27.00;42.00;;;;;;5005220;28;20030;-62
2023/07/06 12:28:31;;;;;;;2.72;2.53;;;27.00;41.60;;;;;;5009084;28;20041;-63
2023/07/06 12:31:03;;;;;;;2.50;2.30;;;27.00;41.30;;;;;;5006482;28;20065;-63
2023/07/06 12:33:29;;;;;;;4.57;2.70;;;27.00;40.50;;;;;;5009468;28;20041;-63
2023/07/06 12:35:56;;;;;;;4.00;2.65;;;27.00;41.00;;;;;;5006981;28;20032;-63
2023/07/06 12:38:23;;;;;;;2.55;2.35;;;26.90;40.90;;;;;;5008409;28;20112;-64
2023/07/06 12:40:48;;;;;;;4.00;2.53;;;26.90;40.90;;;;;;5005975;28;20087;-64
2023/07/06 12:43:25;;;;;;;3.33;2.60;;;27.00;40.90;;;;;;5007811;28;20038;-63
2023/07/06 12:45:53;;;;;;;2.50;2.13;;;27.00;39.50;;;;;;5007546;28;20066;-61
2023/07/06 12:48:24;;;;;;;2.70;2.50;;;27.00;40.10;;;;;;5008755;28;20382;-63
2023/07/06 12:50:54;;;;;;;2.92;2.63;;;27.00;40.20;;;;;;5007106;28;20397;-63
2023/07/06 12:53:27;;;;;;;3.13;2.60;;;27.00;39.90;;;;;;5007629;28;20088;-63
2023/07/06 12:56:00;;;;;;;2.60;2.40;;;27.00;40.90;;;;;;5007102;28;20019;-63
2023/07/06 12:58:37;;;;;;;3.30;2.70;;;27.10;40.90;;;;;;5007164;28;20061;-63
2023/07/06 13:01:09;;;;;;;4.25;2.80;;;27.10;40.20;;;;;;5006527;28;20394;-63
2023/07/06 13:03:51;;;;;;;2.97;2.78;;;27.10;39.40;;;;;;5008434;28;20030;-63
2023/07/06 13:06:19;;;;;;;2.55;2.35;;;27.20;39.50;;;;;;5007042;28;20064;-62